createdAt,value
2023-04-09T00:00:11.537Z,5.00
2023-04-09T00:02:41.230Z,5.55
2023-04-09T00:05:11.338Z,5.38
2023-04-09T00:07:44.666Z,5.30
2023-04-09T00:10:14.303Z,5.45
2023-04-09T00:12:43.812Z,5.15
2023-04-09T00:15:24.014Z,5.30
2023-04-09T00:18:00.041Z,5.75
2023-04-09T00:20:29.677Z,5.65
2023-04-09T00:23:01.762Z,6.13
2023-04-09T00:25:31.444Z,5.50
2023-04-09T00:28:00.971Z,5.60
2023-04-09T00:30:31.328Z,5.63
2023-04-09T00:33:01.424Z,6.10
2023-04-09T00:35:31.387Z,5.68
2023-04-09T00:38:03.503Z,5.80
2023-04-09T00:40:33.360Z,5.85
2023-04-09T00:43:03.046Z,5.45
2023-04-09T00:45:32.580Z,5.47
2023-04-09T00:48:02.161Z,5.53
2023-04-09T00:50:31.681Z,5.50
2023-04-09T00:53:03.781Z,5.43
2023-04-09T00:55:33.269Z,5.68
2023-04-09T00:58:02.805Z,5.20
2023-04-09T01:00:32.330Z,5.15
2023-04-09T01:03:02.030Z,4.70
2023-04-09T01:05:34.205Z,5.00
2023-04-09T01:08:09.738Z,4.43
2023-04-09T01:10:41.546Z,4.15
2023-04-09T01:13:12.746Z,4.10
2023-04-09T01:15:44.058Z,3.92
2023-04-09T01:18:14.865Z,4.10
2023-04-09T01:20:46.044Z,4.50
2023-04-09T01:23:21.935Z,4.30
2023-04-09T01:26:01.943Z,4.20
2023-04-09T01:28:37.725Z,4.07
2023-04-09T01:31:11.917Z,4.10
2023-04-09T01:33:41.548Z,4.00
2023-04-09T01:36:11.130Z,4.22
2023-04-09T01:38:43.252Z,4.20
2023-04-09T01:41:14.925Z,4.13
2023-04-09T01:43:47.200Z,4.20
2023-04-09T01:46:16.795Z,4.43
2023-04-09T01:48:46.804Z,4.28
2023-04-09T01:51:16.840Z,4.18
2023-04-09T01:53:46.459Z,4.30
2023-04-09T01:56:16.055Z,4.00
2023-04-09T01:58:48.180Z,4.28
2023-04-09T02:01:22.968Z,4.18
2023-04-09T02:03:55.205Z,4.40
2023-04-09T02:06:27.461Z,4.30
2023-04-09T02:08:57.016Z,4.28
2023-04-09T02:11:26.588Z,4.07
2023-04-09T02:13:58.695Z,4.18
2023-04-09T02:16:28.197Z,4.20
2023-04-09T02:18:57.981Z,4.60
2023-04-09T02:21:27.558Z,4.72
2023-04-09T02:23:57.054Z,4.50
2023-04-09T02:26:26.894Z,4.50
2023-04-09T02:28:58.998Z,4.78
2023-04-09T02:31:28.603Z,4.70
2023-04-09T02:33:58.240Z,4.35
2023-04-09T02:36:27.849Z,4.55
2023-04-09T02:38:57.409Z,4.68
2023-04-09T02:41:27.594Z,4.35
2023-04-09T02:43:59.690Z,5.00
2023-04-09T02:46:29.272Z,4.72
2023-04-09T02:48:58.812Z,4.95
2023-04-09T02:51:28.316Z,5.00
2023-04-09T02:53:57.868Z,5.13
2023-04-09T02:56:27.393Z,5.13
2023-04-09T02:58:59.587Z,4.72
2023-04-09T03:01:29.134Z,5.03
2023-04-09T03:03:58.737Z,5.10
2023-04-09T03:06:28.587Z,4.90
2023-04-09T03:08:58.073Z,4.82
2023-04-09T03:11:27.706Z,4.97
2023-04-09T03:13:59.773Z,4.80
2023-04-09T03:16:29.319Z,4.63
2023-04-09T03:18:58.824Z,5.00
2023-04-09T03:21:28.344Z,4.93
2023-04-09T03:23:57.840Z,4.70
2023-04-09T03:26:27.344Z,4.93
2023-04-09T03:28:59.406Z,4.80
2023-04-09T03:31:28.956Z,4.80
2023-04-09T03:33:58.483Z,5.10
2023-04-09T03:36:28.263Z,5.40
2023-04-09T03:38:57.779Z,5.50
2023-04-09T03:41:29.292Z,5.22
2023-04-09T03:44:01.512Z,5.40
2023-04-09T03:46:31.061Z,5.22
2023-04-09T03:49:00.701Z,5.18
2023-04-09T03:51:30.224Z,5.57
2023-04-09T03:53:59.720Z,6.32
2023-04-09T03:56:29.333Z,6.10
2023-04-09T03:59:01.463Z,6.38
2023-04-09T04:01:31.215Z,5.97
2023-04-09T04:04:00.843Z,6.60
2023-04-09T04:06:31.425Z,6.85
2023-04-09T04:09:01.108Z,6.80
2023-04-09T04:11:30.852Z,7.20
2023-04-09T04:14:02.939Z,7.22
2023-04-09T04:16:32.580Z,7.55
2023-04-09T04:19:02.129Z,7.88
2023-04-09T04:21:31.648Z,7.63
2023-04-09T04:24:01.262Z,8.00
2023-04-09T04:26:30.881Z,7.95
2023-04-09T04:29:02.972Z,7.40
2023-04-09T04:31:32.748Z,7.68
2023-04-09T04:34:02.300Z,7.97
2023-04-09T04:36:31.859Z,7.95
2023-04-09T04:39:01.391Z,7.82
2023-04-09T04:41:30.940Z,8.05
2023-04-09T04:44:03.039Z,10.98
2023-04-09T04:46:32.597Z,10.40
2023-04-09T04:49:02.114Z,9.77
2023-04-09T04:51:33.680Z,9.45
2023-04-09T04:54:03.195Z,9.30
2023-04-09T04:56:32.776Z,8.77
2023-04-09T04:59:04.881Z,9.73
2023-04-09T05:01:34.583Z,9.40
2023-04-09T05:04:04.663Z,9.43
2023-04-09T05:06:34.213Z,9.88
2023-04-09T05:09:03.714Z,9.10
2023-04-09T05:11:33.229Z,9.70
2023-04-09T05:14:06.317Z,9.30
2023-04-09T05:16:36.302Z,10.18
2023-04-09T05:19:05.860Z,9.40
2023-04-09T05:21:35.423Z,9.70
2023-04-09T05:24:05.002Z,9.13
2023-04-09T05:26:34.616Z,9.65
2023-04-09T05:29:06.865Z,9.65
2023-04-09T05:31:36.489Z,10.27
2023-04-09T05:34:06.343Z,9.88
2023-04-09T05:36:36.005Z,9.98
2023-04-09T05:39:05.615Z,9.40
2023-04-09T05:41:37.443Z,9.40
2023-04-09T05:44:09.631Z,10.32
2023-04-09T05:46:39.147Z,9.75
2023-04-09T05:49:09.011Z,9.85
2023-04-09T05:51:38.567Z,9.57
2023-04-09T05:54:08.239Z,9.80
2023-04-09T05:56:37.788Z,10.13
2023-04-09T05:59:09.867Z,9.88
2023-04-09T06:01:39.397Z,9.45
2023-04-09T06:04:09.064Z,9.95
2023-04-09T06:06:40.366Z,9.93
2023-04-09T06:09:09.953Z,9.45
2023-04-09T06:11:39.472Z,9.98
2023-04-09T06:14:12.422Z,9.27
2023-04-09T06:16:42.123Z,9.20
2023-04-09T06:19:15.110Z,9.30
2023-04-09T06:21:44.660Z,9.18
2023-04-09T06:24:14.167Z,9.10
2023-04-09T06:26:44.034Z,9.27
2023-04-09T06:29:16.224Z,9.68
2023-04-09T06:31:46.639Z,9.88
2023-04-09T06:34:16.355Z,10.13
2023-04-09T06:36:46.025Z,9.07
2023-04-09T06:39:15.774Z,10.15
2023-04-09T06:41:45.386Z,9.90
2023-04-09T06:44:17.500Z,9.90
2023-04-09T06:46:47.088Z,9.50
2023-04-09T06:49:16.632Z,9.57
2023-04-09T06:51:46.673Z,9.93
2023-04-09T06:54:16.194Z,9.57
2023-04-09T06:56:45.709Z,10.20
2023-04-09T06:59:18.146Z,10.35
2023-04-09T07:01:47.926Z,9.30
2023-04-09T07:04:17.719Z,9.68
2023-04-09T07:06:47.481Z,9.75
2023-04-09T07:09:17.762Z,10.15
2023-04-09T07:11:47.331Z,10.43
2023-04-09T07:14:19.578Z,10.48
2023-04-09T07:16:49.155Z,10.05
2023-04-09T07:19:18.663Z,10.18
2023-04-09T07:21:48.384Z,10.85
2023-04-09T07:24:18.052Z,10.50
2023-04-09T07:26:48.688Z,10.85
2023-04-09T07:29:22.533Z,10.93
2023-04-09T07:31:52.089Z,11.07
2023-04-09T07:34:21.784Z,11.23
2023-04-09T07:36:51.328Z,11.18
2023-04-09T07:39:21.263Z,11.48
2023-04-09T07:41:50.898Z,12.10
2023-04-09T07:44:23.356Z,11.85
2023-04-09T07:46:52.960Z,11.73
2023-04-09T07:49:22.587Z,11.77
2023-04-09T07:51:52.138Z,12.05
2023-04-09T07:54:21.687Z,12.02
2023-04-09T07:56:51.581Z,11.63
2023-04-09T07:59:23.696Z,11.70
2023-04-09T08:01:53.457Z,11.60
2023-04-09T08:04:23.314Z,11.98
2023-04-09T08:06:53.710Z,11.45
2023-04-09T08:09:23.303Z,11.80
2023-04-09T08:11:53.438Z,11.20
2023-04-09T08:14:25.634Z,12.20
2023-04-09T08:16:55.665Z,12.23
2023-04-09T08:19:25.399Z,11.43
2023-04-09T08:21:54.892Z,12.30
2023-04-09T08:24:24.582Z,11.93
2023-04-09T08:26:54.623Z,11.85
2023-04-09T08:29:26.776Z,12.32
2023-04-09T08:31:56.465Z,12.15
2023-04-09T08:34:26.093Z,11.90
2023-04-09T08:36:55.760Z,12.27
2023-04-09T08:39:25.514Z,12.75
2023-04-09T08:41:55.115Z,12.48
2023-04-09T08:44:28.054Z,11.85
2023-04-09T08:46:59.167Z,12.35
2023-04-09T08:49:29.303Z,12.10
2023-04-09T08:51:58.943Z,12.57
2023-04-09T08:54:28.498Z,11.75
2023-04-09T08:56:58.891Z,11.98
2023-04-09T08:59:31.115Z,11.93
2023-04-09T09:02:10.096Z,11.73
2023-04-09T09:04:49.489Z,11.60
2023-04-09T09:07:19.306Z,11.88
2023-04-09T09:09:56.373Z,11.82
2023-04-09T09:12:39.247Z,11.70
2023-04-09T09:15:31.079Z,11.95
2023-04-09T09:18:01.902Z,12.45
2023-04-09T09:20:31.527Z,12.35
2023-04-09T09:23:01.615Z,11.93
2023-04-09T09:25:31.204Z,12.20
2023-04-09T09:28:09.994Z,12.07
2023-04-09T09:30:42.779Z,12.10
2023-04-09T09:33:12.918Z,11.52
2023-04-09T09:35:52.036Z,11.43
2023-04-09T09:38:21.605Z,11.43
2023-04-09T09:40:52.809Z,11.23
2023-04-09T09:43:22.410Z,10.73
2023-04-09T09:45:54.531Z,11.43
2023-04-09T09:48:24.885Z,10.90
2023-04-09T09:50:56.201Z,11.85
2023-04-09T09:53:27.442Z,11.63
2023-04-09T09:55:56.973Z,11.50
2023-04-09T09:58:30.216Z,10.65
2023-04-09T10:01:03.031Z,11.48
2023-04-09T10:03:33.180Z,11.70
2023-04-09T10:06:02.700Z,11.07
2023-04-09T10:11:03.531Z,10.32
2023-04-09T10:13:35.711Z,10.40
2023-04-09T10:16:08.936Z,7.78
2023-04-09T10:18:38.989Z,10.10
2023-04-09T10:21:12.604Z,9.82
2023-04-09T10:23:43.384Z,9.02
2023-04-09T10:26:13.043Z,9.05
2023-04-09T10:28:42.653Z,9.00
2023-04-09T10:31:14.773Z,10.52
2023-04-09T10:33:44.410Z,8.35
2023-04-09T10:36:15.046Z,8.40
2023-04-09T10:41:19.685Z,8.98
2023-04-09T10:43:49.460Z,7.85
2023-04-09T10:46:31.502Z,8.48
2023-04-09T15:41:45.156Z,5.43
2023-04-09T15:44:14.683Z,5.10
2023-04-09T15:46:44.322Z,5.20
2023-04-09T15:49:16.593Z,5.30
2023-04-09T15:51:46.297Z,5.30
2023-04-09T15:54:15.889Z,5.15
2023-04-09T15:56:45.436Z,5.50
2023-04-09T15:59:16.470Z,5.65
2023-04-09T16:04:18.089Z,5.50
2023-04-09T16:06:47.787Z,5.45
2023-04-09T16:09:17.441Z,5.22
2023-04-09T16:11:46.921Z,5.10
2023-04-09T16:14:16.371Z,5.18
2023-04-09T16:16:49.653Z,5.70
2023-04-09T16:19:21.883Z,5.70
2023-04-09T16:21:51.202Z,5.30
2023-04-09T16:24:20.696Z,5.60
2023-04-09T16:26:51.738Z,5.85
2023-04-09T16:31:50.252Z,5.68
2023-04-09T16:34:22.211Z,5.50
2023-04-09T16:36:51.726Z,5.68
2023-04-09T16:39:21.268Z,5.82
2023-04-09T16:41:50.541Z,5.53
2023-04-09T16:44:19.904Z,5.78
2023-04-09T16:46:49.344Z,5.40
2023-04-09T16:49:18.594Z,5.20
2023-04-09T16:51:51.963Z,5.20
2023-04-09T16:54:21.429Z,5.78
2023-04-09T16:56:51.309Z,5.13
2023-04-09T16:59:21.234Z,5.50
2023-04-09T17:01:51.824Z,5.45
2023-04-09T17:04:21.361Z,5.35
2023-04-09T17:06:53.325Z,5.13
2023-04-09T17:09:22.567Z,5.05
2023-04-09T17:11:53.063Z,5.15
2023-04-09T17:14:22.282Z,5.10
2023-04-09T17:16:53.025Z,5.30
2023-04-09T17:19:22.354Z,5.30
2023-04-09T17:21:54.247Z,5.00
2023-04-09T17:24:23.532Z,5.20
2023-04-09T17:26:52.791Z,4.82
2023-04-09T17:29:22.035Z,5.00
2023-04-09T17:31:53.226Z,5.00
2023-04-09T17:34:22.516Z,5.00
2023-04-09T17:36:57.283Z,5.15
2023-04-09T17:39:27.013Z,4.93
2023-04-09T17:41:58.162Z,4.93
2023-04-09T18:29:34.404Z,6.85
2023-04-09T19:07:14.227Z,5.60
2023-04-09T19:12:14.115Z,6.28
2023-04-09T19:17:13.489Z,6.38
2023-04-09T19:27:37.023Z,7.32
2023-04-09T19:30:07.257Z,7.00
2023-04-09T19:37:39.875Z,7.72
2023-04-09T19:50:11.902Z,7.95
2023-04-09T20:10:20.100Z,8.02
2023-04-09T20:17:49.794Z,8.07
2023-04-09T20:20:20.573Z,8.07
2023-04-09T20:22:56.244Z,8.15
2023-04-09T20:25:26.285Z,8.30
2023-04-09T20:27:56.058Z,8.18
2023-04-09T20:30:25.651Z,8.10
2023-04-09T20:32:55.041Z,8.20
2023-04-09T20:35:24.490Z,8.13
2023-04-09T20:37:56.646Z,8.93
2023-04-09T20:40:26.084Z,8.98
2023-04-09T20:45:25.169Z,8.20
2023-04-09T20:47:54.805Z,6.63
2023-04-09T20:52:57.774Z,6.50
2023-04-09T20:55:27.207Z,6.38
2023-04-09T21:02:57.943Z,6.55
2023-04-09T21:05:27.501Z,6.50
2023-04-09T21:07:59.573Z,5.97
2023-04-09T21:10:28.973Z,6.95
2023-04-09T21:18:16.143Z,7.85
2023-04-09T21:23:18.797Z,13.55
2023-04-09T21:25:48.194Z,11.07
2023-04-09T21:30:47.875Z,11.02
2023-04-09T21:43:19.378Z,10.57
2023-04-09T21:45:48.905Z,9.90
2023-04-09T21:55:50.942Z,8.77
2023-04-09T21:58:20.426Z,8.95
2023-04-09T22:00:49.938Z,9.40
2023-04-09T22:03:19.529Z,10.18
2023-04-09T22:13:21.275Z,9.43
2023-04-09T22:15:50.705Z,8.90
2023-04-09T22:18:20.042Z,9.68
2023-04-09T22:29:16.346Z,10.18
2023-04-09T22:31:46.103Z,10.70
2023-04-09T22:34:21.129Z,10.68
2023-04-09T22:36:51.295Z,11.27
2023-04-09T22:44:23.268Z,14.27
2023-04-09T22:59:37.286Z,12.35
2023-04-09T23:02:12.897Z,12.23
2023-04-09T23:04:42.648Z,12.30
2023-04-09T23:07:12.786Z,12.57
